sensor_id;sensor_type;location;lat;lon;timestamp;pressure;altitude;pressure_sealevel;temperature;humidity
7774;BME280;3931;42.260;23.116;2022-10-12T00:01:22;95920.53;;;24.54;69.42
7774;BME280;3931;42.260;23.116;2022-10-12T00:03:49;95953.69;;;24.76;68.27
7774;BME280;3931;42.260;23.116;2022-10-12T00:06:17;95948.28;;;24.83;68.36
7774;BME280;3931;42.260;23.116;2022-10-12T00:08:45;95959.06;;;24.90;67.17
7774;BME280;3931;42.260;23.116;2022-10-12T00:11:13;95966.72;;;25.01;66.58
7774;BME280;3931;42.260;23.116;2022-10-12T00:13:39;95955.22;;;24.71;67.30
7774;BME280;3931;42.260;23.116;2022-10-12T00:16:07;95945.22;;;24.53;68.32
7774;BME280;3931;42.260;23.116;2022-10-12T00:18:34;95953.41;;;24.90;67.34
7774;BME280;3931;42.260;23.116;2022-10-12T00:21:01;95974.19;;;25.04;66.45
7774;BME280;3931;42.260;23.116;2022-10-12T00:23:29;95967.84;;;24.81;65.86
7774;BME280;3931;42.260;23.116;2022-10-12T00:26:00;95931.13;;;24.31;69.05
7774;BME280;3931;42.260;23.116;2022-10-12T00:28:26;95912.09;;;24.04;70.00
7774;BME280;3931;42.260;23.116;2022-10-12T00:30:53;95919.31;;;24.11;69.97
7774;BME280;3931;42.260;23.116;2022-10-12T00:33:19;95937.03;;;24.33;69.25
7774;BME280;3931;42.260;23.116;2022-10-12T00:35:45;95928.31;;;24.26;69.33
7774;BME280;3931;42.260;23.116;2022-10-12T00:38:11;95919.84;;;24.26;69.48
7774;BME280;3931;42.260;23.116;2022-10-12T00:40:37;95919.28;;;24.49;69.36
7774;BME280;3931;42.260;23.116;2022-10-12T00:45:45;95948.53;;;24.80;67.71
7774;BME280;3931;42.260;23.116;2022-10-12T00:48:11;95960.59;;;24.91;66.93
7774;BME280;3931;42.260;23.116;2022-10-12T00:50:37;95952.91;;;24.86;67.20
7774;BME280;3931;42.260;23.116;2022-10-12T00:53:05;95953.59;;;24.98;66.39
7774;BME280;3931;42.260;23.116;2022-10-12T00:55:35;95960.53;;;25.02;66.38
7774;BME280;3931;42.260;23.116;2022-10-12T00:58:04;95961.31;;;25.08;65.92
7774;BME280;3931;42.260;23.116;2022-10-12T01:00:33;95940.03;;;24.80;67.40
7774;BME280;3931;42.260;23.116;2022-10-12T01:02:59;95945.94;;;24.93;66.68
7774;BME280;3931;42.260;23.116;2022-10-12T01:05:26;95953.56;;;25.09;66.58
7774;BME280;3931;42.260;23.116;2022-10-12T01:07:53;95948.47;;;24.96;66.84
7774;BME280;3931;42.260;23.116;2022-10-12T01:10:19;95951.63;;;24.82;66.95
7774;BME280;3931;42.260;23.116;2022-10-12T01:12:46;95960.38;;;24.84;67.04
7774;BME280;3931;42.260;23.116;2022-10-12T01:15:15;95945.97;;;24.65;67.52
7774;BME280;3931;42.260;23.116;2022-10-12T01:17:46;95942.84;;;24.85;67.72
7774;BME280;3931;42.260;23.116;2022-10-12T01:20:35;95955.84;;;25.16;66.71
7774;BME280;3931;42.260;23.116;2022-10-12T01:29:12;95950.00;;;25.03;67.41
7774;BME280;3931;42.260;23.116;2022-10-12T01:31:51;95934.78;;;25.06;68.05
7774;BME280;3931;42.260;23.116;2022-10-12T01:34:28;95946.38;;;25.02;67.68
7774;BME280;3931;42.260;23.116;2022-10-12T01:37:04;95918.75;;;24.56;69.60
7774;BME280;3931;42.260;23.116;2022-10-12T01:39:36;95911.25;;;24.64;69.17
7774;BME280;3931;42.260;23.116;2022-10-12T01:42:07;95912.34;;;24.45;69.84
7774;BME280;3931;42.260;23.116;2022-10-12T01:44:35;95903.06;;;24.50;70.66
7774;BME280;3931;42.260;23.116;2022-10-12T01:47:02;95913.06;;;24.56;70.30
7774;BME280;3931;42.260;23.116;2022-10-12T01:49:32;95948.44;;;25.07;67.66
7774;BME280;3931;42.260;23.116;2022-10-12T01:52:20;95941.31;;;24.84;68.18
7774;BME280;3931;42.260;23.116;2022-10-12T01:55:09;95953.53;;;25.14;67.14
7774;BME280;3931;42.260;23.116;2022-10-12T01:57:49;95959.22;;;25.14;67.23
7774;BME280;3931;42.260;23.116;2022-10-12T02:00:18;95938.44;;;24.95;68.41
7774;BME280;3931;42.260;23.116;2022-10-12T02:02:52;95945.19;;;24.76;68.22
7774;BME280;3931;42.260;23.116;2022-10-12T02:05:26;95940.31;;;24.82;68.66
7774;BME280;3931;42.260;23.116;2022-10-12T02:08:03;95961.06;;;25.06;67.41
7774;BME280;3931;42.260;23.116;2022-10-12T02:10:35;95951.63;;;24.71;68.83
7774;BME280;3931;42.260;23.116;2022-10-12T02:13:05;95964.19;;;24.97;67.24
7774;BME280;3931;42.260;23.116;2022-10-12T02:15:33;95968.53;;;24.98;66.90
7774;BME280;3931;42.260;23.116;2022-10-12T02:18:03;95968.88;;;24.78;66.92
7774;BME280;3931;42.260;23.116;2022-10-12T02:20:30;95944.44;;;24.53;68.77
7774;BME280;3931;42.260;23.116;2022-10-12T02:22:57;95946.00;;;24.59;68.93
7774;BME280;3931;42.260;23.116;2022-10-12T02:25:26;95951.34;;;24.80;68.55
7774;BME280;3931;42.260;23.116;2022-10-12T02:27:56;95952.91;;;24.81;68.29
7774;BME280;3931;42.260;23.116;2022-10-12T02:30:24;95957.53;;;24.67;67.97
7774;BME280;3931;42.260;23.116;2022-10-12T02:32:54;95959.84;;;24.91;66.85
7774;BME280;3931;42.260;23.116;2022-10-12T02:35:29;95976.81;;;24.74;66.78
7774;BME280;3931;42.260;23.116;2022-10-12T02:38:00;95975.56;;;24.64;66.61
7774;BME280;3931;42.260;23.116;2022-10-12T02:40:32;95982.50;;;24.80;66.53
7774;BME280;3931;42.260;23.116;2022-10-12T02:43:04;95965.25;;;24.67;67.27
7774;BME280;3931;42.260;23.116;2022-10-12T02:45:32;95973.75;;;24.67;67.11
7774;BME280;3931;42.260;23.116;2022-10-12T02:47:59;95977.31;;;24.89;65.99
7774;BME280;3931;42.260;23.116;2022-10-12T02:50:27;95989.22;;;24.77;65.41
7774;BME280;3931;42.260;23.116;2022-10-12T02:52:53;95991.72;;;24.97;64.96
7774;BME280;3931;42.260;23.116;2022-10-12T02:55:21;95991.75;;;24.86;65.42
7774;BME280;3931;42.260;23.116;2022-10-12T02:57:47;95986.63;;;24.79;65.97
7774;BME280;3931;42.260;23.116;2022-10-12T03:00:14;95990.72;;;24.78;65.34
7774;BME280;3931;42.260;23.116;2022-10-12T03:02:40;95990.72;;;24.67;65.64
7774;BME280;3931;42.260;23.116;2022-10-12T03:05:06;95992.00;;;24.82;65.22
7774;BME280;3931;42.260;23.116;2022-10-12T03:07:33;96004.06;;;24.94;65.33
7774;BME280;3931;42.260;23.116;2022-10-12T03:09:59;96004.50;;;25.20;64.22
7774;BME280;3931;42.260;23.116;2022-10-12T03:12:25;95994.03;;;25.04;65.43
7774;BME280;3931;42.260;23.116;2022-10-12T03:14:51;95993.28;;;24.87;64.64
7774;BME280;3931;42.260;23.116;2022-10-12T03:17:17;95974.78;;;24.86;65.74
7774;BME280;3931;42.260;23.116;2022-10-12T03:19:43;95985.56;;;24.93;64.75
7774;BME280;3931;42.260;23.116;2022-10-12T03:22:09;96002.75;;;25.06;64.19
7774;BME280;3931;42.260;23.116;2022-10-12T03:24:36;96000.44;;;25.04;64.22
7774;BME280;3931;42.260;23.116;2022-10-12T03:27:02;95991.13;;;25.15;63.46
7774;BME280;3931;42.260;23.116;2022-10-12T03:29:28;96004.53;;;25.14;63.19
7774;BME280;3931;42.260;23.116;2022-10-12T03:31:54;96010.69;;;25.18;62.82
7774;BME280;3931;42.260;23.116;2022-10-12T03:34:21;96010.44;;;25.16;62.41
7774;BME280;3931;42.260;23.116;2022-10-12T03:36:47;96013.06;;;25.03;61.95
7774;BME280;3931;42.260;23.116;2022-10-12T03:39:13;96011.50;;;25.02;62.37
7774;BME280;3931;42.260;23.116;2022-10-12T03:41:40;96001.56;;;24.79;63.37
7774;BME280;3931;42.260;23.116;2022-10-12T03:44:06;96007.69;;;24.89;62.98
7774;BME280;3931;42.260;23.116;2022-10-12T03:46:32;96006.97;;;24.66;63.97
7774;BME280;3931;42.260;23.116;2022-10-12T03:48:58;96009.53;;;24.86;63.90
7774;BME280;3931;42.260;23.116;2022-10-12T03:51:24;95996.84;;;25.04;63.53
7774;BME280;3931;42.260;23.116;2022-10-12T03:53:50;96014.59;;;25.10;62.71
7774;BME280;3931;42.260;23.116;2022-10-12T03:56:16;96018.41;;;25.18;61.94
7774;BME280;3931;42.260;23.116;2022-10-12T03:58:43;96012.31;;;24.97;62.92
7774;BME280;3931;42.260;23.116;2022-10-12T04:01:09;96007.38;;;25.09;62.55
7774;BME280;3931;42.260;23.116;2022-10-12T04:03:35;96012.75;;;25.18;62.59
7774;BME280;3931;42.260;23.116;2022-10-12T04:06:01;96002.56;;;24.93;63.44
7774;BME280;3931;42.260;23.116;2022-10-12T04:08:27;96002.03;;;24.89;63.50
7774;BME280;3931;42.260;23.116;2022-10-12T04:10:53;95995.63;;;24.88;64.07
7774;BME280;3931;42.260;23.116;2022-10-12T04:13:19;96004.56;;;24.98;63.80
7774;BME280;3931;42.260;23.116;2022-10-12T04:15:46;95994.84;;;24.88;63.94
7774;BME280;3931;42.260;23.116;2022-10-12T04:18:12;96004.84;;;24.94;63.73
7774;BME280;3931;42.260;23.116;2022-10-12T04:20:38;96007.69;;;24.94;63.11
7774;BME280;3931;42.260;23.116;2022-10-12T04:23:04;96007.72;;;24.83;63.37
7774;BME280;3931;42.260;23.116;2022-10-12T04:25:31;96016.38;;;25.13;62.68
7774;BME280;3931;42.260;23.116;2022-10-12T04:27:57;96008.13;;;25.09;62.64
7774;BME280;3931;42.260;23.116;2022-10-12T04:30:23;96015.59;;;25.12;62.21
7774;BME280;3931;42.260;23.116;2022-10-12T04:32:50;96022.53;;;25.17;61.78
7774;BME280;3931;42.260;23.116;2022-10-12T04:35:16;96018.94;;;25.22;62.42
7774;BME280;3931;42.260;23.116;2022-10-12T04:37:42;96014.88;;;25.01;62.93
7774;BME280;3931;42.260;23.116;2022-10-12T04:40:09;96021.19;;;25.29;61.62
7774;BME280;3931;42.260;23.116;2022-10-12T04:42:35;96019.47;;;25.15;62.36
7774;BME280;3931;42.260;23.116;2022-10-12T04:45:01;96022.28;;;25.15;62.40
7774;BME280;3931;42.260;23.116;2022-10-12T04:47:27;96018.13;;;25.27;62.41
7774;BME280;3931;42.260;23.116;2022-10-12T04:49:54;96024.53;;;25.44;61.46
7774;BME280;3931;42.260;23.116;2022-10-12T04:52:20;96020.44;;;25.23;62.08
7774;BME280;3931;42.260;23.116;2022-10-12T04:54:46;96029.97;;;25.25;61.47
7774;BME280;3931;42.260;23.116;2022-10-12T04:57:12;96037.19;;;25.26;61.44
7774;BME280;3931;42.260;23.116;2022-10-12T04:59:38;96046.47;;;25.21;61.33
7774;BME280;3931;42.260;23.116;2022-10-12T05:02:04;96046.69;;;25.29;60.80
7774;BME280;3931;42.260;23.116;2022-10-12T05:04:30;96036.47;;;25.09;62.15
7774;BME280;3931;42.260;23.116;2022-10-12T05:06:57;96042.94;;;24.93;62.79
7774;BME280;3931;42.260;23.116;2022-10-12T05:09:23;96047.84;;;24.93;62.30
7774;BME280;3931;42.260;23.116;2022-10-12T05:11:49;96039.09;;;24.91;63.14
7774;BME280;3931;42.260;23.116;2022-10-12T05:14:16;96057.06;;;25.10;62.31
7774;BME280;3931;42.260;23.116;2022-10-12T05:16:42;96050.94;;;24.84;62.51
7774;BME280;3931;42.260;23.116;2022-10-12T05:19:08;96064.06;;;24.87;61.59
7774;BME280;3931;42.260;23.116;2022-10-12T05:21:34;96063.00;;;25.06;60.51
7774;BME280;3931;42.260;23.116;2022-10-12T05:24:01;96059.91;;;24.93;60.58
7774;BME280;3931;42.260;23.116;2022-10-12T05:26:27;96063.25;;;25.03;61.15
7774;BME280;3931;42.260;23.116;2022-10-12T05:28:53;96033.22;;;24.28;65.11
7774;BME280;3931;42.260;23.116;2022-10-12T05:31:19;96023.44;;;24.23;66.34
7774;BME280;3931;42.260;23.116;2022-10-12T05:33:45;96006.69;;;23.98;67.62
7774;BME280;3931;42.260;23.116;2022-10-12T05:36:11;96035.00;;;24.31;65.97
7774;BME280;3931;42.260;23.116;2022-10-12T05:38:37;95997.44;;;23.97;68.79
7774;BME280;3931;42.260;23.116;2022-10-12T05:41:04;96039.38;;;24.82;65.43
7774;BME280;3931;42.260;23.116;2022-10-12T05:43:30;96041.16;;;24.85;64.59
7774;BME280;3931;42.260;23.116;2022-10-12T05:45:57;96045.53;;;24.69;65.18
7774;BME280;3931;42.260;23.116;2022-10-12T05:48:23;96035.78;;;24.37;66.67
7774;BME280;3931;42.260;23.116;2022-10-12T05:50:51;96047.88;;;24.54;65.78
7774;BME280;3931;42.260;23.116;2022-10-12T05:53:18;96046.84;;;24.46;65.79
7774;BME280;3931;42.260;23.116;2022-10-12T05:55:51;96049.69;;;24.57;65.25
7774;BME280;3931;42.260;23.116;2022-10-12T05:58:18;96055.06;;;24.60;64.71
7774;BME280;3931;42.260;23.116;2022-10-12T06:00:44;96066.59;;;25.07;63.07
7774;BME280;3931;42.260;23.116;2022-10-12T06:03:10;96069.19;;;24.99;62.56
7774;BME280;3931;42.260;23.116;2022-10-12T06:05:36;96084.38;;;25.02;61.91
7774;BME280;3931;42.260;23.116;2022-10-12T06:08:02;96084.41;;;24.91;62.72
7774;BME280;3931;42.260;23.116;2022-10-12T06:10:28;96088.75;;;24.92;62.85
7774;BME280;3931;42.260;23.116;2022-10-12T06:12:54;96076.66;;;24.58;64.12
7774;BME280;3931;42.260;23.116;2022-10-12T06:15:21;96086.69;;;24.64;64.08
7774;BME280;3931;42.260;23.116;2022-10-12T06:17:47;96088.22;;;24.71;62.92
7774;BME280;3931;42.260;23.116;2022-10-12T06:20:13;96096.47;;;24.97;62.69
7774;BME280;3931;42.260;23.116;2022-10-12T06:22:40;96099.56;;;24.99;62.61
7774;BME280;3931;42.260;23.116;2022-10-12T06:25:06;96106.25;;;25.01;62.33
7774;BME280;3931;42.260;23.116;2022-10-12T06:27:33;96101.63;;;24.93;62.85
7774;BME280;3931;42.260;23.116;2022-10-12T06:29:59;96112.16;;;25.14;61.91
7774;BME280;3931;42.260;23.116;2022-10-12T06:32:26;96111.63;;;25.16;61.73
7774;BME280;3931;42.260;23.116;2022-10-12T06:34:52;96114.47;;;25.10;61.50
7774;BME280;3931;42.260;23.116;2022-10-12T06:37:18;96114.97;;;25.14;61.13
7774;BME280;3931;42.260;23.116;2022-10-12T06:39:44;96119.81;;;25.36;60.40
7774;BME280;3931;42.260;23.116;2022-10-12T06:42:10;96120.34;;;25.46;60.02
7774;BME280;3931;42.260;23.116;2022-10-12T06:44:36;96117.28;;;25.21;60.99
7774;BME280;3931;42.260;23.116;2022-10-12T06:47:02;96124.44;;;25.33;60.48
7774;BME280;3931;42.260;23.116;2022-10-12T06:49:29;96125.44;;;25.58;59.44
7774;BME280;3931;42.260;23.116;2022-10-12T06:51:55;96121.09;;;25.41;59.93
7774;BME280;3931;42.260;23.116;2022-10-12T06:54:21;96135.94;;;25.80;59.04
7774;BME280;3931;42.260;23.116;2022-10-12T06:56:47;96128.03;;;25.56;59.97
7774;BME280;3931;42.260;23.116;2022-10-12T06:59:13;96129.28;;;25.66;58.85
7774;BME280;3931;42.260;23.116;2022-10-12T07:01:39;96130.84;;;25.62;59.86
7774;BME280;3931;42.260;23.116;2022-10-12T07:04:05;96130.03;;;25.78;59.61
7774;BME280;3931;42.260;23.116;2022-10-12T07:06:32;96136.13;;;25.93;59.17
7774;BME280;3931;42.260;23.116;2022-10-12T07:08:58;96132.06;;;26.29;57.82
7774;BME280;3931;42.260;23.116;2022-10-12T07:11:25;96137.16;;;25.95;58.07
7774;BME280;3931;42.260;23.116;2022-10-12T07:13:51;96130.13;;;26.08;58.39
7774;BME280;3931;42.260;23.116;2022-10-12T07:16:17;96142.91;;;26.31;57.61
7774;BME280;3931;42.260;23.116;2022-10-12T07:18:43;96132.13;;;26.18;57.38
7774;BME280;3931;42.260;23.116;2022-10-12T07:21:10;96136.44;;;26.36;57.29
7774;BME280;3931;42.260;23.116;2022-10-12T07:23:36;96136.84;;;26.51;57.77
7774;BME280;3931;42.260;23.116;2022-10-12T07:26:02;96140.16;;;26.55;57.14
7774;BME280;3931;42.260;23.116;2022-10-12T07:28:29;96145.53;;;26.64;56.56
7774;BME280;3931;42.260;23.116;2022-10-12T07:30:59;96151.69;;;26.68;55.98
7774;BME280;3931;42.260;23.116;2022-10-12T07:33:30;96139.72;;;26.45;56.99
7774;BME280;3931;42.260;23.116;2022-10-12T07:35:56;96148.44;;;26.88;56.13
7774;BME280;3931;42.260;23.116;2022-10-12T07:38:22;96146.25;;;26.70;56.18
7774;BME280;3931;42.260;23.116;2022-10-12T07:40:49;96143.16;;;26.68;55.63
7774;BME280;3931;42.260;23.116;2022-10-12T07:43:15;96145.13;;;27.14;54.73
7774;BME280;3931;42.260;23.116;2022-10-12T07:45:41;96146.44;;;27.13;54.22
7774;BME280;3931;42.260;23.116;2022-10-12T07:48:07;96148.25;;;26.81;55.03
7774;BME280;3931;42.260;23.116;2022-10-12T07:50:34;96142.31;;;26.79;55.58
7774;BME280;3931;42.260;23.116;2022-10-12T07:53:00;96142.50;;;26.92;54.81
7774;BME280;3931;42.260;23.116;2022-10-12T07:55:26;96142.00;;;26.88;55.09
7774;BME280;3931;42.260;23.116;2022-10-12T07:57:52;96133.22;;;27.15;54.75
7774;BME280;3931;42.260;23.116;2022-10-12T08:00:19;96135.81;;;26.89;54.93
7774;BME280;3931;42.260;23.116;2022-10-12T08:02:46;96139.66;;;26.16;56.86
7774;BME280;3931;42.260;23.116;2022-10-12T08:05:12;96129.22;;;26.35;56.69
7774;BME280;3931;42.260;23.116;2022-10-12T08:07:38;96122.59;;;26.21;56.77
7774;BME280;3931;42.260;23.116;2022-10-12T08:10:05;96133.47;;;26.88;55.44
7774;BME280;3931;42.260;23.116;2022-10-12T08:12:31;96132.28;;;26.72;55.69
7774;BME280;3931;42.260;23.116;2022-10-12T08:14:58;96136.84;;;27.16;54.28
7774;BME280;3931;42.260;23.116;2022-10-12T08:17:24;96136.06;;;26.50;55.56
7774;BME280;3931;42.260;23.116;2022-10-12T08:26:34;96142.13;;;27.01;54.84
7774;BME280;3931;42.260;23.116;2022-10-12T08:29:00;96130.09;;;26.54;55.48
7774;BME280;3931;42.260;23.116;2022-10-12T08:31:28;96139.59;;;26.97;53.78
7774;BME280;3931;42.260;23.116;2022-10-12T08:33:55;96140.50;;;26.81;53.93
7774;BME280;3931;42.260;23.116;2022-10-12T08:36:21;96133.09;;;27.02;53.97
7774;BME280;3931;42.260;23.116;2022-10-12T08:38:49;96141.72;;;26.56;54.53
7774;BME280;3931;42.260;23.116;2022-10-12T08:41:47;96144.25;;;27.24;53.48
7774;BME280;3931;42.260;23.116;2022-10-12T08:44:52;96141.88;;;27.28;52.91
7774;BME280;3931;42.260;23.116;2022-10-12T08:47:33;96141.78;;;27.39;52.94
7774;BME280;3931;42.260;23.116;2022-10-12T08:59:57;96121.78;;;27.51;52.33
7774;BME280;3931;42.260;23.116;2022-10-12T09:02:43;96126.56;;;27.61;51.92
7774;BME280;3931;42.260;23.116;2022-10-12T09:05:15;96127.41;;;27.02;53.26
7774;BME280;3931;42.260;23.116;2022-10-12T09:07:47;96123.47;;;27.11;53.92
7774;BME280;3931;42.260;23.116;2022-10-12T09:10:25;96122.25;;;27.55;52.05
7774;BME280;3931;42.260;23.116;2022-10-12T09:13:01;96119.38;;;26.77;53.08
7774;BME280;3931;42.260;23.116;2022-10-12T09:15:32;96123.69;;;26.83;53.02
7774;BME280;3931;42.260;23.116;2022-10-12T09:18:01;96124.31;;;26.76;53.08
7774;BME280;3931;42.260;23.116;2022-10-12T09:20:32;96119.41;;;26.36;54.36
7774;BME280;3931;42.260;23.116;2022-10-12T09:23:03;96120.38;;;27.33;52.02
7774;BME280;3931;42.260;23.116;2022-10-12T09:25:32;96122.56;;;26.97;51.83
7774;BME280;3931;42.260;23.116;2022-10-12T09:28:10;96110.63;;;25.87;53.47
7774;BME280;3931;42.260;23.116;2022-10-12T09:30:41;96121.41;;;27.35;50.62
7774;BME280;3931;42.260;23.116;2022-10-12T09:33:19;96119.38;;;27.30;51.29
7774;BME280;3931;42.260;23.116;2022-10-12T09:35:48;96120.13;;;27.36;51.27
7774;BME280;3931;42.260;23.116;2022-10-12T09:38:15;96117.22;;;27.12;51.86
7774;BME280;3931;42.260;23.116;2022-10-12T09:40:41;96114.72;;;27.33;51.91
7774;BME280;3931;42.260;23.116;2022-10-12T09:43:09;96120.13;;;27.61;51.60
7774;BME280;3931;42.260;23.116;2022-10-12T09:45:36;96119.75;;;27.45;51.94
7774;BME280;3931;42.260;23.116;2022-10-12T09:48:11;96112.34;;;28.04;51.06
7774;BME280;3931;42.260;23.116;2022-10-12T09:50:40;96120.59;;;27.65;51.55
7774;BME280;3931;42.260;23.116;2022-10-12T09:53:19;96117.53;;;27.81;51.12
7774;BME280;3931;42.260;23.116;2022-10-12T09:56:01;96121.72;;;28.36;50.36
7774;BME280;3931;42.260;23.116;2022-10-12T09:58:29;96129.03;;;28.32;49.97
7774;BME280;3931;42.260;23.116;2022-10-12T10:01:19;96127.03;;;28.45;50.13
7774;BME280;3931;42.260;23.116;2022-10-12T10:03:48;96116.81;;;28.37;48.93
7774;BME280;3931;42.260;23.116;2022-10-12T10:06:23;96110.59;;;28.01;49.98
7774;BME280;3931;42.260;23.116;2022-10-12T10:08:49;96110.41;;;28.31;50.25
7774;BME280;3931;42.260;23.116;2022-10-12T10:11:28;96117.25;;;28.03;49.96
7774;BME280;3931;42.260;23.116;2022-10-12T10:13:57;96119.34;;;27.60;50.95
7774;BME280;3931;42.260;23.116;2022-10-12T10:16:25;96109.63;;;27.50;50.35
7774;BME280;3931;42.260;23.116;2022-10-12T10:18:56;96099.72;;;28.37;50.46
7774;BME280;3931;42.260;23.116;2022-10-12T10:21:27;96098.00;;;28.65;49.52
7774;BME280;3931;42.260;23.116;2022-10-12T10:23:55;96091.78;;;29.12;48.36
7774;BME280;3931;42.260;23.116;2022-10-12T10:26:23;96093.94;;;28.93;48.67
7774;BME280;3931;42.260;23.116;2022-10-12T10:28:53;96082.22;;;28.96;49.22
7774;BME280;3931;42.260;23.116;2022-10-12T10:31:22;96088.28;;;28.55;48.49
7774;BME280;3931;42.260;23.116;2022-10-12T10:34:12;96089.78;;;27.69;49.15
7774;BME280;3931;42.260;23.116;2022-10-12T10:36:46;96090.88;;;28.22;49.49
7774;BME280;3931;42.260;23.116;2022-10-12T10:39:18;96090.59;;;28.75;48.91
7774;BME280;3931;42.260;23.116;2022-10-12T10:41:46;96079.84;;;28.81;46.75
7774;BME280;3931;42.260;23.116;2022-10-12T10:44:30;96080.38;;;29.12;47.01
7774;BME280;3931;42.260;23.116;2022-10-12T10:46:59;96074.69;;;28.67;48.58
7774;BME280;3931;42.260;23.116;2022-10-12T10:49:35;96083.25;;;28.80;48.38
7774;BME280;3931;42.260;23.116;2022-10-12T10:52:03;96081.56;;;29.03;47.58
7774;BME280;3931;42.260;23.116;2022-10-12T10:54:33;96076.91;;;28.87;47.79
7774;BME280;3931;42.260;23.116;2022-10-12T10:57:03;96074.00;;;29.06;46.46
7774;BME280;3931;42.260;23.116;2022-10-12T10:59:41;96074.19;;;29.52;46.35
7774;BME280;3931;42.260;23.116;2022-10-12T11:02:21;96074.03;;;28.74;47.05
7774;BME280;3931;42.260;23.116;2022-10-12T11:04:51;96076.47;;;28.83;46.22
7774;BME280;3931;42.260;23.116;2022-10-12T11:07:25;96071.09;;;29.77;45.28
7774;BME280;3931;42.260;23.116;2022-10-12T11:09:55;96073.63;;;27.58;47.08
7774;BME280;3931;42.260;23.116;2022-10-12T11:12:26;96074.13;;;27.81;47.78
7774;BME280;3931;42.260;23.116;2022-10-12T11:14:57;96066.13;;;28.17;46.37
7774;BME280;3931;42.260;23.116;2022-10-12T11:17:28;96057.53;;;28.85;45.78
7774;BME280;3931;42.260;23.116;2022-10-12T11:20:04;96061.31;;;29.33;44.93
7774;BME280;3931;42.260;23.116;2022-10-12T11:22:34;96057.22;;;29.15;44.05
7774;BME280;3931;42.260;23.116;2022-10-12T11:25:08;96054.38;;;29.02;45.25
7774;BME280;3931;42.260;23.116;2022-10-12T11:27:40;96054.78;;;28.80;46.00
7774;BME280;3931;42.260;23.116;2022-10-12T11:30:13;96044.31;;;29.14;44.65
7774;BME280;3931;42.260;23.116;2022-10-12T11:32:41;96047.16;;;29.01;45.01
7774;BME280;3931;42.260;23.116;2022-10-12T11:35:13;96053.38;;;29.13;45.05
7774;BME280;3931;42.260;23.116;2022-10-12T11:37:47;96048.91;;;29.70;44.66
7774;BME280;3931;42.260;23.116;2022-10-12T11:40:19;96044.44;;;29.48;44.65
7774;BME280;3931;42.260;23.116;2022-10-12T11:42:47;96048.81;;;27.96;46.86
7774;BME280;3931;42.260;23.116;2022-10-12T11:45:19;96052.09;;;29.53;44.37
7774;BME280;3931;42.260;23.116;2022-10-12T11:47:48;96047.66;;;30.04;43.55
7774;BME280;3931;42.260;23.116;2022-10-12T11:50:25;96045.97;;;29.88;43.87
7774;BME280;3931;42.260;23.116;2022-10-12T11:52:55;96044.16;;;29.98;43.24
7774;BME280;3931;42.260;23.116;2022-10-12T11:55:43;96044.53;;;29.55;43.93
7774;BME280;3931;42.260;23.116;2022-10-12T11:58:15;96038.06;;;29.81;43.05
7774;BME280;3931;42.260;23.116;2022-10-12T12:00:55;96038.19;;;29.49;43.70
7774;BME280;3931;42.260;23.116;2022-10-12T12:03:29;96042.47;;;29.30;43.63
7774;BME280;3931;42.260;23.116;2022-10-12T12:09:16;96034.56;;;29.36;43.73
7774;BME280;3931;42.260;23.116;2022-10-12T12:11:43;96035.69;;;29.46;43.61
7774;BME280;3931;42.260;23.116;2022-10-12T12:14:46;96040.13;;;29.02;44.33
7774;BME280;3931;42.260;23.116;2022-10-12T12:17:21;96037.44;;;29.23;43.52
7774;BME280;3931;42.260;23.116;2022-10-12T12:19:49;96034.53;;;29.10;43.58
7774;BME280;3931;42.260;23.116;2022-10-12T12:22:24;96023.75;;;28.63;45.43
7774;BME280;3931;42.260;23.116;2022-10-12T12:25:18;96033.84;;;30.63;42.58
7774;BME280;3931;42.260;23.116;2022-10-12T12:27:48;96029.31;;;30.88;41.89
7774;BME280;3931;42.260;23.116;2022-10-12T12:30:25;96023.75;;;30.62;41.99
7774;BME280;3931;42.260;23.116;2022-10-12T12:32:55;96027.00;;;30.86;41.75
7774;BME280;3931;42.260;23.116;2022-10-12T12:35:28;96017.16;;;31.44;41.42
7774;BME280;3931;42.260;23.116;2022-10-12T12:41:00;96028.13;;;30.63;43.01
7774;BME280;3931;42.260;23.116;2022-10-12T12:43:57;96030.97;;;30.63;42.18
7774;BME280;3931;42.260;23.116;2022-10-12T12:49:27;96026.88;;;28.28;45.61
7774;BME280;3931;42.260;23.116;2022-10-12T12:51:54;96034.16;;;28.42;45.92
7774;BME280;3931;42.260;23.116;2022-10-12T12:54:22;96034.53;;;28.52;46.06
7774;BME280;3931;42.260;23.116;2022-10-12T12:57:14;96040.34;;;28.59;45.43
7774;BME280;3931;42.260;23.116;2022-10-12T13:00:16;96035.19;;;28.26;45.90
7774;BME280;3931;42.260;23.116;2022-10-12T13:03:13;96032.13;;;28.88;45.42
7774;BME280;3931;42.260;23.116;2022-10-12T13:09:21;96035.97;;;29.16;44.04
7774;BME280;3931;42.260;23.116;2022-10-12T13:12:07;96034.31;;;29.73;44.54
7774;BME280;3931;42.260;23.116;2022-10-12T13:14:59;96042.81;;;30.12;43.20
7774;BME280;3931;42.260;23.116;2022-10-12T13:17:40;96038.56;;;30.06;43.53
7774;BME280;3931;42.260;23.116;2022-10-12T13:20:16;96041.34;;;29.07;44.66
7774;BME280;3931;42.260;23.116;2022-10-12T13:22:44;96033.03;;;27.95;46.57
7774;BME280;3931;42.260;23.116;2022-10-12T13:25:18;96044.66;;;27.60;46.76
7774;BME280;3931;42.260;23.116;2022-10-12T13:27:48;96041.44;;;28.88;45.44
7774;BME280;3931;42.260;23.116;2022-10-12T13:30:21;96042.75;;;29.13;44.80
7774;BME280;3931;42.260;23.116;2022-10-12T13:32:52;96039.06;;;28.60;44.81
7774;BME280;3931;42.260;23.116;2022-10-12T13:35:29;96039.22;;;28.49;45.35
7774;BME280;3931;42.260;23.116;2022-10-12T13:38:01;96040.56;;;28.30;46.10
7774;BME280;3931;42.260;23.116;2022-10-12T13:40:30;96035.38;;;28.47;44.97
7774;BME280;3931;42.260;23.116;2022-10-12T13:43:16;96035.38;;;28.78;45.06
7774;BME280;3931;42.260;23.116;2022-10-12T13:45:44;96031.13;;;28.53;45.27
7774;BME280;3931;42.260;23.116;2022-10-12T13:48:16;96030.81;;;28.25;45.32
7774;BME280;3931;42.260;23.116;2022-10-12T13:50:49;96029.84;;;27.85;45.85
7774;BME280;3931;42.260;23.116;2022-10-12T13:53:15;96033.53;;;28.81;44.85
7774;BME280;3931;42.260;23.116;2022-10-12T13:55:41;96032.34;;;28.26;45.28
7774;BME280;3931;42.260;23.116;2022-10-12T13:58:19;96026.22;;;28.03;45.90
7774;BME280;3931;42.260;23.116;2022-10-12T14:00:48;96028.44;;;28.61;45.68
7774;BME280;3931;42.260;23.116;2022-10-12T14:03:14;96027.34;;;27.95;46.50